الصفحة الرئيسية
METAR-TAF:

METAR-TAF

مطار :

مطار الأمير نايف بن عبد العزيز الدولي

مدينة بريدة, السعودية

دائرة عرض: 26-18N, خط طول: 043-46E, ارتفاع: 648 متر

مراقبة الطقس الحالي

تاريخ ووقت الإصدار 30 دقيقة قبل الساعة 03:00UTC
ريح 4 عقدة من الشرق/الشمال الشرقي
درجة الحرارة 22°درجة مئوية
الرطوبة 46%
ضغط 1017 hPa
الرؤية 10 كم أو أكثر
الغيوم لا تقل 1500 م ولا وجود لمزنة ركامية السحاب الأسود

METAR: OEGS 140300Z 06004KT CAVOK 22/10 Q1017

زمن: 06:30 (03:30 UTC)

توقعات

تاريخ ووقت الإصدار 4ساعات و 30 دقيقة قبل الساعة 23:00UTC
التوقعات صالحة من14 الساعة 00 UTC إلى 15 الساعة 06 UTC
ريح 3 عقدةمن اتجاهات متغيرة
الرؤية 10 كم أو أكثر
غيوم قليلة على ارتفاع 4000 قدم
غيوم متفرقة على ارتفاع 10000 قدم
أصبح
من 14 الساعة 06 UTC إلى 14 الساعة 08 UTC
ريح 10 عقدة من الغرب/الجنوب الغربي

TAF: OEGS 132300Z 1400/1506 VRB03KT 9999 FEW040 SCT100 BECMG 1406/1408 24010KT

أرصاد الطقس والتوقعات من أكثر من 4000 مطار (تقارير الطقس للمطار METAR والتنبؤ بالطقس بالمطارTAF).

المحطات المتاحة هي النقط الصفراء والحمراء على الخريطة.

حرك المؤشر فوق النقطة لمعرفة اسم المحطة.

ثم انقر لمعرفة أرصاد وتوقعات الطقس.

لتغيير الخارطة: اضغط على الأزرار الخضراء مع رمز الصليب الأسود للتكبير. على الزر الأخضر مع شرطة للتصغير، أو على الأسهم الخضراء للخرائط المجاورة.


METAR-TAF: